Time;durP1;ratioP1;P1;durP2;ratioP2;P2;SDS_P1;SDS_P2;PMS_P1;PMS_P2;Temp;Humidity;BMP_temperature;BMP_pressure;BME280_temperature;BME280_humidity;BME280_pressure;Samples;Min_cycle;Max_cycle;Signal;HPM_P1;HPM_P2
2021/06/08 00:01:55;;;;;;;16.33;14.80;;;;;;;;;;5113980;28;20568;-74
2021/06/08 00:04:22;;;;;;;16.73;14.47;;;;;;;;;;5114469;28;20844;-75
2021/06/08 00:06:50;;;;;;;17.53;15.60;;;;;;;;;;5114304;28;20541;-76
2021/06/08 00:09:16;;;;;;;17.97;15.20;;;;;;;;;;5114753;28;20775;-76
2021/06/08 00:11:43;;;;;;;18.00;16.20;;;;;;;;;;5114253;28;20438;-75
2021/06/08 00:14:10;;;;;;;16.40;15.00;;;;;;;;;;5113898;28;20438;-76
2021/06/08 00:16:38;;;;;;;17.47;15.77;;;;;;;;;;5113878;28;20977;-75
2021/06/08 00:19:04;;;;;;;18.70;16.97;;;;;;;;;;5113860;28;20466;-75
2021/06/08 00:21:31;;;;;;;17.40;15.80;;;;;;;;;;5114093;28;20832;-75
2021/06/08 00:23:58;;;;;;;18.80;16.27;;;;;;;;;;5114059;28;20439;-75
2021/06/08 00:26:25;;;;;;;17.73;15.47;;;;;;;;;;5114101;28;20527;-75
2021/06/08 00:28:52;;;;;;;17.27;15.70;;;;;;;;;;5113722;28;20450;-76
2021/06/08 00:31:18;;;;;;;18.80;17.10;;;;;;;;;;5114775;28;20437;-76
2021/06/08 00:33:47;;;;;;;18.07;16.40;;;;;;;;;;5114271;28;20435;-75
2021/06/08 00:36:14;;;;;;;17.20;15.67;;;;;;;;;;5113613;28;20434;-75
2021/06/08 00:38:41;;;;;;;18.83;16.60;;;;;;;;;;5113989;28;20436;-76
2021/06/08 00:41:07;;;;;;;17.83;16.23;;;;;;;;;;5114218;28;20530;-75
2021/06/08 00:43:35;;;;;;;20.00;18.00;;;;;;;;;;5113657;28;21004;-75
2021/06/08 00:46:01;;;;;;;19.13;17.13;;;;;;;;;;5114208;28;20456;-75
2021/06/08 00:48:28;;;;;;;20.27;18.17;;;;;;;;;;5114186;28;20482;-75
2021/06/08 00:50:56;;;;;;;20.53;18.00;;;;;;;;;;5114293;28;20503;-75
2021/06/08 00:53:23;;;;;;;24.97;18.37;;;;;;;;;;5114636;28;20438;-76
2021/06/08 00:55:51;;;;;;;21.47;19.20;;;;;;;;;;5113495;28;20940;-76
2021/06/08 00:58:17;;;;;;;22.30;19.10;;;;;;;;;;5113454;28;20442;-75
2021/06/08 01:00:44;;;;;;;22.23;20.13;;;;;;;;;;5113508;28;20951;-75
2021/06/08 01:03:11;;;;;;;21.40;19.20;;;;;;;;;;5113737;28;20479;-75
2021/06/08 01:05:38;;;;;;;23.77;21.27;;;;;;;;;;5115382;28;20449;-77
2021/06/08 01:08:07;;;;;;;22.57;20.50;;;;;;;;;;5117339;28;20434;-76
2021/06/08 01:10:33;;;;;;;21.57;19.40;;;;;;;;;;5117637;28;20439;-76
2021/06/08 01:13:00;;;;;;;23.53;21.20;;;;;;;;;;5117697;28;20509;-76
2021/06/08 01:15:27;;;;;;;24.87;22.37;;;;;;;;;;5117209;28;20446;-76
2021/06/08 01:17:54;;;;;;;28.73;23.00;;;;;;;;;;5117482;28;20459;-76
2021/06/08 01:20:21;;;;;;;27.13;24.40;;;;;;;;;;5117432;28;20549;-75
2021/06/08 01:22:49;;;;;;;27.13;23.80;;;;;;;;;;5116943;28;20479;-75
2021/06/08 01:25:15;;;;;;;28.10;25.20;;;;;;;;;;5117018;28;20552;-76
2021/06/08 01:27:42;;;;;;;24.77;22.37;;;;;;;;;;5117525;28;20478;-75
2021/06/08 01:30:10;;;;;;;26.07;23.57;;;;;;;;;;5117269;28;20474;-75
2021/06/08 01:32:52;;;;;;;28.50;25.57;;;;;;;;;;5093963;28;20431;-75
2021/06/08 01:35:19;;;;;;;27.97;24.13;;;;;;;;;;5117408;28;20440;-75
2021/06/08 01:37:46;;;;;;;31.83;25.53;;;;;;;;;;5117340;28;20456;-75
2021/06/08 01:40:17;;;;;;;27.00;24.20;;;;;;;;;;5116725;28;20434;-77
2021/06/08 01:42:44;;;;;;;26.83;24.20;;;;;;;;;;5116748;28;21054;-76
2021/06/08 01:45:15;;;;;;;27.07;23.97;;;;;;;;;;5116955;28;20438;-77
2021/06/08 01:47:41;;;;;;;26.03;23.43;;;;;;;;;;5116952;28;20427;-75
2021/06/08 01:50:09;;;;;;;25.87;23.27;;;;;;;;;;5116963;28;20879;-74
2021/06/08 01:52:38;;;;;;;26.03;21.33;;;;;;;;;;5117312;28;20477;-74
2021/06/08 01:55:08;;;;;;;24.93;22.20;;;;;;;;;;5116952;28;20470;-76
2021/06/08 01:57:41;;;;;;;24.00;21.73;;;;;;;;;;5116467;28;20425;-75
2021/06/08 02:00:09;;;;;;;23.77;21.37;;;;;;;;;;5117172;28;20430;-74
2021/06/08 02:02:40;;;;;;;24.47;22.07;;;;;;;;;;5116247;28;20480;-75
2021/06/08 02:05:13;;;;;;;25.53;23.00;;;;;;;;;;5117136;28;20449;-75
2021/06/08 02:07:42;;;;;;;24.10;21.70;;;;;;;;;;5117326;28;20455;-76
2021/06/08 02:10:26;;;;;;;25.93;20.43;;;;;;;;;;5116435;28;20781;-78
2021/06/08 02:12:56;;;;;;;28.20;22.20;;;;;;;;;;5115944;28;20918;-77
2021/06/08 02:15:23;;;;;;;23.73;21.33;;;;;;;;;;5116409;28;20443;-75
2021/06/08 02:17:51;;;;;;;26.07;23.50;;;;;;;;;;5116091;28;20455;-77
2021/06/08 02:20:19;;;;;;;25.73;23.10;;;;;;;;;;5116344;28;20491;-76
2021/06/08 02:22:52;;;;;;;25.73;23.03;;;;;;;;;;5116161;28;20480;-77
2021/06/08 02:25:20;;;;;;;26.43;21.07;;;;;;;;;;5116305;28;20460;-77
2021/06/08 02:27:46;;;;;;;23.63;21.37;;;;;;;;;;5115764;28;20480;-79
2021/06/08 02:30:15;;;;;;;27.77;25.07;;;;;;;;;;5115765;28;20434;-76
2021/06/08 02:32:42;;;;;;;24.93;22.43;;;;;;;;;;5115725;28;20452;-77
2021/06/08 02:35:10;;;;;;;26.37;23.47;;;;;;;;;;5115695;28;20431;-77
2021/06/08 02:37:37;;;;;;;26.50;23.30;;;;;;;;;;5116232;28;20484;-77
2021/06/08 02:40:05;;;;;;;25.60;22.93;;;;;;;;;;5115602;28;20940;-75
2021/06/08 02:42:31;;;;;;;25.37;22.70;;;;;;;;;;5115978;28;21023;-75
2021/06/08 02:44:58;;;;;;;24.10;21.57;;;;;;;;;;5116551;28;20439;-75
2021/06/08 02:47:26;;;;;;;22.83;20.53;;;;;;;;;;5115784;28;20517;-75
2021/06/08 02:49:53;;;;;;;21.20;19.10;;;;;;;;;;5115507;28;20454;-75
2021/06/08 02:52:20;;;;;;;21.70;19.67;;;;;;;;;;5115917;28;20530;-74
2021/06/08 02:54:48;;;;;;;25.33;18.30;;;;;;;;;;5115608;28;20431;-75
2021/06/08 02:57:15;;;;;;;21.80;19.20;;;;;;;;;;5115256;28;20535;-75
2021/06/08 02:59:43;;;;;;;20.73;18.27;;;;;;;;;;5115961;28;20455;-75
2021/06/08 03:02:11;;;;;;;21.43;15.83;;;;;;;;;;5116211;28;20566;-75
2021/06/08 03:04:43;;;;;;;18.17;16.13;;;;;;;;;;5115792;28;20447;-75
2021/06/08 03:07:11;;;;;;;16.43;14.80;;;;;;;;;;5115548;28;20475;-75
2021/06/08 03:09:39;;;;;;;16.20;14.50;;;;;;;;;;5115514;28;20467;-75
2021/06/08 03:12:07;;;;;;;15.07;13.57;;;;;;;;;;5115526;28;20473;-75
2021/06/08 03:14:34;;;;;;;16.57;14.97;;;;;;;;;;5114983;28;20936;-76
2021/06/08 03:17:02;;;;;;;16.17;14.47;;;;;;;;;;5115191;28;20932;-75
2021/06/08 03:19:31;;;;;;;15.83;14.23;;;;;;;;;;5115516;28;20479;-75
2021/06/08 03:22:02;;;;;;;14.70;13.20;;;;;;;;;;5115330;28;20570;-75
2021/06/08 03:24:31;;;;;;;12.20;11.00;;;;;;;;;;5114622;28;20492;-75
2021/06/08 03:26:59;;;;;;;13.30;11.90;;;;;;;;;;5115305;28;20477;-75
2021/06/08 03:29:26;;;;;;;14.13;11.23;;;;;;;;;;5114698;28;20431;-75
2021/06/08 03:31:53;;;;;;;13.60;11.57;;;;;;;;;;5114788;28;20534;-75
2021/06/08 03:34:20;;;;;;;11.93;10.63;;;;;;;;;;5114837;28;20999;-75
2021/06/08 03:36:48;;;;;;;10.97;9.43;;;;;;;;;;5114770;28;20478;-75
2021/06/08 03:39:16;;;;;;;10.43;9.27;;;;;;;;;;5114667;28;20436;-74
2021/06/08 03:41:44;;;;;;;15.87;10.20;;;;;;;;;;5114342;28;20983;-75
2021/06/08 03:44:13;;;;;;;10.30;9.40;;;;;;;;;;5114914;28;20525;-76
2021/06/08 03:46:40;;;;;;;10.77;9.70;;;;;;;;;;5114251;28;20431;-75
2021/06/08 03:49:07;;;;;;;10.70;9.70;;;;;;;;;;5114840;28;20447;-74
2021/06/08 03:51:34;;;;;;;10.30;9.33;;;;;;;;;;5114650;28;20443;-75
2021/06/08 03:54:00;;;;;;;9.30;8.10;;;;;;;;;;5114891;28;20443;-74
2021/06/08 03:56:29;;;;;;;11.27;9.50;;;;;;;;;;5114468;28;20518;-75
2021/06/08 03:58:56;;;;;;;10.70;9.30;;;;;;;;;;5114412;28;20439;-75
2021/06/08 04:01:24;;;;;;;9.93;8.97;;;;;;;;;;5114678;28;20445;-75
2021/06/08 04:03:51;;;;;;;11.47;9.63;;;;;;;;;;5114672;28;20439;-75
2021/06/08 04:06:19;;;;;;;9.87;8.73;;;;;;;;;;5114243;28;20439;-75
2021/06/08 04:08:46;;;;;;;9.73;8.83;;;;;;;;;;5114631;28;20903;-75
2021/06/08 04:11:13;;;;;;;8.90;8.00;;;;;;;;;;5114231;28;20441;-74
2021/06/08 04:13:41;;;;;;;9.07;8.13;;;;;;;;;;5113837;28;20449;-74
2021/06/08 04:16:08;;;;;;;9.83;8.83;;;;;;;;;;5114518;28;20450;-74
2021/06/08 04:18:35;;;;;;;11.33;8.80;;;;;;;;;;5114133;28;20491;-74
2021/06/08 04:21:02;;;;;;;8.90;8.10;;;;;;;;;;5113658;28;20445;-76
2021/06/08 04:23:29;;;;;;;10.70;8.57;;;;;;;;;;5114091;28;20482;-77
2021/06/08 04:25:56;;;;;;;9.07;8.17;;;;;;;;;;5114428;28;20438;-75
2021/06/08 04:28:23;;;;;;;8.83;7.93;;;;;;;;;;5114184;28;20462;-75
2021/06/08 04:30:52;;;;;;;8.97;8.17;;;;;;;;;;5114948;28;20449;-75
2021/06/08 04:33:21;;;;;;;13.77;9.47;;;;;;;;;;5123179;28;21020;-74
2021/06/08 04:35:48;;;;;;;10.57;8.37;;;;;;;;;;5114286;28;20533;-73
2021/06/08 04:38:15;;;;;;;10.87;8.30;;;;;;;;;;5113690;28;20449;-73
2021/06/08 04:40:43;;;;;;;9.93;8.07;;;;;;;;;;5116546;28;20434;-75
2021/06/08 04:43:10;;;;;;;9.80;8.90;;;;;;;;;;5117930;28;20538;-75
2021/06/08 04:45:37;;;;;;;8.10;7.30;;;;;;;;;;5118586;28;20450;-76
2021/06/08 04:48:05;;;;;;;9.20;8.30;;;;;;;;;;5118173;28;20530;-75
2021/06/08 04:50:32;;;;;;;8.50;7.60;;;;;;;;;;5118010;28;20835;-76
2021/06/08 04:53:02;;;;;;;8.77;8.00;;;;;;;;;;5117896;28;20434;-75
2021/06/08 04:55:29;;;;;;;9.90;8.90;;;;;;;;;;5117911;28;20467;-75
2021/06/08 04:57:56;;;;;;;12.27;8.73;;;;;;;;;;5118312;28;20445;-76
2021/06/08 05:00:26;;;;;;;9.60;8.60;;;;;;;;;;5117281;28;20426;-76
2021/06/08 05:02:54;;;;;;;8.90;8.10;;;;;;;;;;5117617;28;20620;-75
2021/06/08 05:05:24;;;;;;;14.73;9.53;;;;;;;;;;5117259;28;20446;-75
2021/06/08 05:07:55;;;;;;;10.03;8.97;;;;;;;;;;5117366;28;20566;-76
2021/06/08 05:10:22;;;;;;;11.90;8.17;;;;;;;;;;5118006;28;20446;-76
2021/06/08 05:12:50;;;;;;;8.73;8.00;;;;;;;;;;5117676;28;20549;-76
2021/06/08 05:15:18;;;;;;;9.70;8.33;;;;;;;;;;5117619;28;20529;-76
2021/06/08 05:17:46;;;;;;;10.13;9.13;;;;;;;;;;5117766;28;20538;-81
2021/06/08 05:20:14;;;;;;;12.73;8.80;;;;;;;;;;5118249;28;20447;-76
2021/06/08 05:22:42;;;;;;;12.30;10.73;;;;;;;;;;5117384;28;20509;-75
2021/06/08 05:25:10;;;;;;;11.13;9.07;;;;;;;;;;5117254;28;20442;-74
2021/06/08 05:27:38;;;;;;;10.67;9.63;;;;;;;;;;5117273;28;20553;-74
2021/06/08 05:30:05;;;;;;;12.50;10.33;;;;;;;;;;5117473;28;20469;-74
2021/06/08 05:32:32;;;;;;;8.90;8.07;;;;;;;;;;5116848;28;20450;-74
2021/06/08 05:34:59;;;;;;;10.50;9.50;;;;;;;;;;5117522;28;20435;-73
2021/06/08 05:37:26;;;;;;;11.57;8.77;;;;;;;;;;5117159;28;20447;-76
2021/06/08 05:39:54;;;;;;;11.20;9.87;;;;;;;;;;5116848;28;20459;-75
2021/06/08 05:42:20;;;;;;;12.30;10.03;;;;;;;;;;5117660;28;20476;-74
2021/06/08 05:44:47;;;;;;;9.33;8.50;;;;;;;;;;5117213;28;20439;-75
2021/06/08 05:47:14;;;;;;;10.80;9.70;;;;;;;;;;5117053;28;20534;-80
2021/06/08 05:49:41;;;;;;;11.67;10.07;;;;;;;;;;5117435;28;20492;-79
2021/06/08 05:52:08;;;;;;;12.23;10.07;;;;;;;;;;5116396;28;20787;-79
2021/06/08 05:54:35;;;;;;;10.87;9.77;;;;;;;;;;5117639;28;20442;-80
2021/06/08 05:57:04;;;;;;;11.27;9.10;;;;;;;;;;5116654;28;20953;-80
2021/06/08 05:59:31;;;;;;;14.47;10.67;;;;;;;;;;5116634;28;21089;-81
2021/06/08 06:01:58;;;;;;;11.00;10.00;;;;;;;;;;5116698;28;20566;-80
2021/06/08 06:04:25;;;;;;;12.40;10.03;;;;;;;;;;5116736;28;20452;-80
2021/06/08 06:06:52;;;;;;;10.83;9.00;;;;;;;;;;5116835;28;20452;-80
2021/06/08 06:09:21;;;;;;;12.57;10.03;;;;;;;;;;5116990;28;20438;-79
2021/06/08 06:11:49;;;;;;;10.23;9.13;;;;;;;;;;5116364;28;20940;-80
2021/06/08 06:14:20;;;;;;;17.83;11.37;;;;;;;;;;5116443;28;20446;-80
2021/06/08 06:16:50;;;;;;;11.20;9.90;;;;;;;;;;5116690;28;20435;-80
2021/06/08 06:19:17;;;;;;;12.90;10.87;;;;;;;;;;5116954;28;20451;-79
2021/06/08 06:21:44;;;;;;;12.40;11.10;;;;;;;;;;5116956;28;20523;-80
2021/06/08 06:24:11;;;;;;;14.10;12.60;;;;;;;;;;5115917;28;20530;-80
2021/06/08 06:26:38;;;;;;;11.23;9.77;;;;;;;;;;5115747;28;20924;-80
2021/06/08 06:29:08;;;;;;;12.70;10.90;;;;;;;;;;5116774;28;20797;-80
2021/06/08 06:31:36;;;;;;;12.13;10.57;;;;;;;;;;5115813;28;20447;-81
2021/06/08 06:34:03;;;;;;;13.70;11.37;;;;;;;;;;5117335;28;20443;-80
2021/06/08 06:36:32;;;;;;;12.47;11.20;;;;;;;;;;5117533;28;20443;-79
2021/06/08 06:39:01;;;;;;;16.60;11.73;;;;;;;;;;5116639;28;20463;-80
2021/06/08 06:41:28;;;;;;;14.03;11.23;;;;;;;;;;5117013;28;20867;-80
2021/06/08 06:43:55;;;;;;;16.30;12.20;;;;;;;;;;5116301;28;20481;-81
2021/06/08 06:46:23;;;;;;;13.43;11.33;;;;;;;;;;5116536;28;20489;-80
2021/06/08 06:48:54;;;;;;;13.57;12.10;;;;;;;;;;5115867;28;20527;-80
2021/06/08 06:51:21;;;;;;;12.73;11.40;;;;;;;;;;5117210;28;20435;-80
2021/06/08 06:53:49;;;;;;;13.63;12.33;;;;;;;;;;5118356;28;20526;-79
2021/06/08 06:56:15;;;;;;;13.27;11.97;;;;;;;;;;5115609;28;20480;-80
2021/06/08 06:58:42;;;;;;;14.40;12.37;;;;;;;;;;5115477;28;20453;-80
2021/06/08 07:01:09;;;;;;;13.60;12.20;;;;;;;;;;5115215;28;20931;-80
2021/06/08 07:03:36;;;;;;;15.83;13.90;;;;;;;;;;5114280;28;20568;-79
2021/06/08 07:06:04;;;;;;;17.23;14.43;;;;;;;;;;5115439;28;20531;-79
2021/06/08 07:08:32;;;;;;;23.67;19.07;;;;;;;;;;5115638;28;20533;-80
2021/06/08 07:11:01;;;;;;;17.40;13.23;;;;;;;;;;5114890;28;20945;-80
2021/06/08 07:13:28;;;;;;;16.77;15.07;;;;;;;;;;5115156;28;20523;-80
2021/06/08 07:15:55;;;;;;;14.43;12.83;;;;;;;;;;5115650;28;20447;-81
2021/06/08 07:18:22;;;;;;;13.97;12.57;;;;;;;;;;5115619;28;20531;-79
2021/06/08 07:20:49;;;;;;;13.90;12.50;;;;;;;;;;5115021;28;20439;-79
2021/06/08 07:23:19;;;;;;;14.07;12.70;;;;;;;;;;5114653;28;20496;-80
2021/06/08 07:25:46;;;;;;;14.70;13.40;;;;;;;;;;5114782;28;20471;-79
2021/06/08 07:28:13;;;;;;;15.50;13.90;;;;;;;;;;5115288;28;20506;-80
2021/06/08 07:30:41;;;;;;;15.07;12.90;;;;;;;;;;5114844;28;20848;-79
2021/06/08 07:33:10;;;;;;;14.60;13.30;;;;;;;;;;5114756;28;20438;-79
2021/06/08 07:35:39;;;;;;;18.80;13.33;;;;;;;;;;5115204;28;20547;-79
2021/06/08 07:38:08;;;;;;;21.60;15.00;;;;;;;;;;5115089;28;20449;-80
2021/06/08 07:40:40;;;;;;;15.67;14.13;;;;;;;;;;5114394;28;20474;-81
2021/06/08 07:43:09;;;;;;;16.47;14.03;;;;;;;;;;5115111;28;20829;-80
2021/06/08 07:45:37;;;;;;;15.70;13.60;;;;;;;;;;5114771;28;20479;-81
2021/06/08 07:48:06;;;;;;;14.40;12.93;;;;;;;;;;5114538;28;20872;-82
2021/06/08 07:50:34;;;;;;;15.60;13.57;;;;;;;;;;5114170;28;20472;-81
2021/06/08 07:53:02;;;;;;;14.50;13.10;;;;;;;;;;5114295;28;20535;-80
2021/06/08 07:55:31;;;;;;;15.23;13.73;;;;;;;;;;5114081;28;20444;-80
2021/06/08 07:58:00;;;;;;;15.40;14.00;;;;;;;;;;5114273;28;20436;-79
2021/06/08 08:00:26;;;;;;;16.30;14.60;;;;;;;;;;5114321;28;20528;-80
2021/06/08 08:02:53;;;;;;;17.97;16.17;;;;;;;;;;5114248;28;20477;-80
2021/06/08 08:05:22;;;;;;;18.40;16.50;;;;;;;;;;5114335;28;20449;-80
2021/06/08 08:07:49;;;;;;;16.87;15.27;;;;;;;;;;5114414;28;20435;-80
2021/06/08 08:10:16;;;;;;;18.23;14.63;;;;;;;;;;5114238;28;20435;-80
2021/06/08 08:12:43;;;;;;;17.73;15.70;;;;;;;;;;5114212;28;20451;-81
2021/06/08 08:15:12;;;;;;;18.67;16.70;;;;;;;;;;5113455;28;20487;-80
2021/06/08 08:17:39;;;;;;;17.50;15.80;;;;;;;;;;5114715;28;20528;-80
2021/06/08 08:20:09;;;;;;;16.93;15.43;;;;;;;;;;5114152;28;20535;-80
2021/06/08 08:22:35;;;;;;;16.47;14.40;;;;;;;;;;5113767;28;20471;-80
2021/06/08 08:25:02;;;;;;;19.00;16.90;;;;;;;;;;5113760;28;20949;-79
2021/06/08 08:27:29;;;;;;;20.43;15.60;;;;;;;;;;5114060;28;20514;-81
2021/06/08 08:29:56;;;;;;;16.53;14.93;;;;;;;;;;5113698;28;20432;-81
2021/06/08 08:32:24;;;;;;;17.17;15.40;;;;;;;;;;5113719;28;20449;-81
2021/06/08 08:34:51;;;;;;;17.50;15.70;;;;;;;;;;5113912;28;20524;-81
2021/06/08 08:37:17;;;;;;;17.20;15.60;;;;;;;;;;5113861;28;20496;-80
2021/06/08 08:39:46;;;;;;;18.20;16.50;;;;;;;;;;5113554;28;21022;-80
2021/06/08 08:42:13;;;;;;;17.10;15.30;;;;;;;;;;5113647;28;20502;-80
2021/06/08 08:44:40;;;;;;;21.27;16.97;;;;;;;;;;5113816;28;20440;-81
2021/06/08 08:47:06;;;;;;;17.17;15.13;;;;;;;;;;5114240;28;20495;-80
2021/06/08 08:49:35;;;;;;;16.73;15.23;;;;;;;;;;5113696;28;20955;-81
2021/06/08 08:52:03;;;;;;;18.20;16.50;;;;;;;;;;5113997;28;20444;-80
2021/06/08 08:54:30;;;;;;;20.23;16.47;;;;;;;;;;5113279;28;20448;-79
2021/06/08 08:56:57;;;;;;;17.57;15.93;;;;;;;;;;5113942;28;20481;-81
2021/06/08 08:59:24;;;;;;;18.37;15.97;;;;;;;;;;5113865;28;20452;-80
2021/06/08 09:01:51;;;;;;;17.83;16.13;;;;;;;;;;5113855;28;20595;-83
2021/06/08 09:04:19;;;;;;;23.57;17.60;;;;;;;;;;5114115;28;20479;-80
2021/06/08 09:06:47;;;;;;;19.23;17.27;;;;;;;;;;5113977;28;20522;-80
2021/06/08 09:09:14;;;;;;;20.30;18.40;;;;;;;;;;5113728;28;20612;-82
2021/06/08 09:11:42;;;;;;;20.97;18.30;;;;;;;;;;5113658;28;20836;-80
2021/06/08 09:14:09;;;;;;;23.40;19.00;;;;;;;;;;5113377;28;20955;-79
2021/06/08 09:16:36;;;;;;;19.07;17.20;;;;;;;;;;5113900;28;20537;-80
2021/06/08 09:19:04;;;;;;;19.80;17.80;;;;;;;;;;5113927;28;20438;-83
2021/06/08 09:21:33;;;;;;;20.60;18.07;;;;;;;;;;5113574;28;20446;-81
2021/06/08 09:24:14;;;;;;;20.20;18.27;;;;;;;;;;5113524;28;20471;-81
2021/06/08 09:26:49;;;;;;;20.03;17.97;;;;;;;;;;5114888;28;20856;-80
2021/06/08 09:29:27;;;;;;;20.00;17.70;;;;;;;;;;5116993;28;20573;-81
2021/06/08 09:32:08;;;;;;;19.47;17.43;;;;;;;;;;5117448;28;20433;-79
2021/06/08 09:34:35;;;;;;;19.23;17.33;;;;;;;;;;5116772;28;20439;-80
2021/06/08 09:37:04;;;;;;;20.30;18.07;;;;;;;;;;5117141;28;20542;-80
2021/06/08 09:39:31;;;;;;;22.30;20.00;;;;;;;;;;5117234;28;20518;-79
2021/06/08 09:41:59;;;;;;;24.37;19.90;;;;;;;;;;5116815;28;20438;-79
2021/06/08 09:44:26;;;;;;;19.60;17.70;;;;;;;;;;5117144;28;20486;-81
2021/06/08 09:46:54;;;;;;;22.07;19.73;;;;;;;;;;5116977;28;20535;-81
2021/06/08 09:49:21;;;;;;;20.83;18.80;;;;;;;;;;5116964;28;20548;-80
2021/06/08 09:51:50;;;;;;;21.10;18.07;;;;;;;;;;5116786;28;20915;-80
2021/06/08 09:54:32;;;;;;;20.73;18.63;;;;;;;;;;5116540;28;20456;-81
2021/06/08 09:57:16;;;;;;;19.40;17.40;;;;;;;;;;5115195;28;20552;-81
2021/06/08 09:59:44;;;;;;;21.60;19.00;;;;;;;;;;5116479;28;20447;-80
2021/06/08 10:02:34;;;;;;;24.73;17.47;;;;;;;;;;5117036;28;20478;-80
2021/06/08 10:05:18;;;;;;;20.87;17.73;;;;;;;;;;5116806;28;20430;-80
2021/06/08 10:07:45;;;;;;;17.90;16.03;;;;;;;;;;5117157;28;20484;-81
2021/06/08 10:10:13;;;;;;;19.90;17.20;;;;;;;;;;5116592;28;20517;-80
2021/06/08 10:12:55;;;;;;;17.90;16.20;;;;;;;;;;5116515;28;20445;-79
2021/06/08 10:15:22;;;;;;;19.40;17.37;;;;;;;;;;5116220;28;20548;-80
2021/06/08 10:17:56;;;;;;;25.23;19.10;;;;;;;;;;5115966;28;20446;-79
2021/06/08 10:20:23;;;;;;;18.70;16.70;;;;;;;;;;5116806;28;20559;-81
2021/06/08 10:22:50;;;;;;;18.10;16.40;;;;;;;;;;5116431;28;20573;-79
2021/06/08 10:25:17;;;;;;;18.33;16.53;;;;;;;;;;5115945;28;20531;-79
2021/06/08 10:27:44;;;;;;;17.37;15.63;;;;;;;;;;5116107;28;20846;-79
2021/06/08 10:30:14;;;;;;;14.73;13.23;;;;;;;;;;5116196;28;20533;-79
2021/06/08 10:32:41;;;;;;;13.83;12.43;;;;;;;;;;5117141;28;20444;-80
2021/06/08 10:35:09;;;;;;;15.90;14.37;;;;;;;;;;5115951;28;20531;-79
2021/06/08 10:37:36;;;;;;;14.50;13.03;;;;;;;;;;5120508;28;20478;-79
2021/06/08 10:40:04;;;;;;;17.70;13.23;;;;;;;;;;5124987;28;20438;-80
2021/06/08 10:42:31;;;;;;;16.13;14.43;;;;;;;;;;5116183;28;20497;-79
2021/06/08 10:45:02;;;;;;;16.63;14.97;;;;;;;;;;5116135;28;20950;-80
2021/06/08 10:47:36;;;;;;;16.60;15.10;;;;;;;;;;5116052;28;20531;-80
2021/06/08 10:50:04;;;;;;;19.97;14.10;;;;;;;;;;5115576;28;20448;-80
2021/06/08 10:52:45;;;;;;;15.87;14.20;;;;;;;;;;5116261;28;20438;-80
2021/06/08 10:55:13;;;;;;;18.53;16.73;;;;;;;;;;5116562;28;20480;-80
2021/06/08 10:57:44;;;;;;;16.40;14.67;;;;;;;;;;5115367;28;20554;-80
2021/06/08 11:00:31;;;;;;;17.17;15.50;;;;;;;;;;5116039;28;20415;-80
2021/06/08 11:03:01;;;;;;;16.57;15.10;;;;;;;;;;5115242;28;20978;-81
2021/06/08 11:05:42;;;;;;;17.33;15.60;;;;;;;;;;5115555;28;20438;-80
2021/06/08 11:08:09;;;;;;;20.00;17.93;;;;;;;;;;5115567;28;20873;-81
2021/06/08 11:10:51;;;;;;;20.67;17.80;;;;;;;;;;5115185;28;20525;-79
2021/06/08 11:13:36;;;;;;;20.33;18.00;;;;;;;;;;5115396;28;20434;-80
2021/06/08 11:16:19;;;;;;;20.53;18.33;;;;;;;;;;5115032;28;20442;-80
2021/06/08 11:18:47;;;;;;;21.73;19.33;;;;;;;;;;5114516;28;20451;-81
2021/06/08 11:21:24;;;;;;;22.63;20.30;;;;;;;;;;5114803;28;20454;-80
2021/06/08 11:23:53;;;;;;;23.80;21.37;;;;;;;;;;5114741;28;20494;-80
2021/06/08 11:26:40;;;;;;;20.93;18.80;;;;;;;;;;5114555;28;20478;-80
2021/06/08 11:29:07;;;;;;;22.60;20.43;;;;;;;;;;5114346;28;20537;-79
2021/06/08 11:31:50;;;;;;;23.77;20.70;;;;;;;;;;5114650;28;20451;-80
2021/06/08 11:34:18;;;;;;;20.67;18.67;;;;;;;;;;5114350;28;20433;-79
2021/06/08 11:36:46;;;;;;;18.60;16.80;;;;;;;;;;5114428;28;20501;-79
2021/06/08 11:39:30;;;;;;;20.80;18.70;;;;;;;;;;5114433;28;20449;-80
2021/06/08 11:41:57;;;;;;;20.20;18.00;;;;;;;;;;5114838;28;20448;-80
2021/06/08 11:44:24;;;;;;;20.70;18.57;;;;;;;;;;5114150;28;20553;-80
2021/06/08 11:46:54;;;;;;;20.53;18.67;;;;;;;;;;5114536;28;20440;-79
2021/06/08 11:49:23;;;;;;;20.37;18.47;;;;;;;;;;5113819;28;20495;-80
2021/06/08 11:52:06;;;;;;;19.93;17.90;;;;;;;;;;5114328;28;20525;-80
2021/06/08 11:54:43;;;;;;;20.30;18.40;;;;;;;;;;5114805;28;20438;-80
2021/06/08 11:57:12;;;;;;;17.07;15.47;;;;;;;;;;5114259;28;20517;-80
2021/06/08 12:00:00;;;;;;;18.10;15.87;;;;;;;;;;5113995;28;20451;-80
2021/06/08 12:02:28;;;;;;;17.87;16.27;;;;;;;;;;5109503;28;20457;-81
2021/06/08 12:05:29;;;;;;;22.90;20.13;;;;;;;;;;5113975;28;20445;-81
2021/06/08 12:08:01;;;;;;;17.63;15.93;;;;;;;;;;5114399;28;20447;-80
2021/06/08 12:10:33;;;;;;;18.70;17.00;;;;;;;;;;5113743;28;20444;-80
2021/06/08 12:13:00;;;;;;;20.23;18.33;;;;;;;;;;5113799;28;20436;-81
2021/06/08 12:15:28;;;;;;;18.47;16.47;;;;;;;;;;5113741;28;21046;-81
2021/06/08 12:17:58;;;;;;;21.97;19.83;;;;;;;;;;5114187;28;20445;-80
2021/06/08 12:20:25;;;;;;;19.77;18.07;;;;;;;;;;5114127;28;20448;-80
2021/06/08 12:22:52;;;;;;;21.47;17.73;;;;;;;;;;5114176;28;20614;-81
2021/06/08 12:25:20;;;;;;;19.03;17.30;;;;;;;;;;5113644;28;20496;-80
2021/06/08 12:27:47;;;;;;;17.87;16.17;;;;;;;;;;5114419;28;20500;-80
2021/06/08 12:30:15;;;;;;;19.40;16.00;;;;;;;;;;5113912;28;20513;-81
2021/06/08 12:32:42;;;;;;;22.20;16.17;;;;;;;;;;5113819;28;20436;-81
2021/06/08 12:35:21;;;;;;;17.37;15.67;;;;;;;;;;5113841;28;20486;-81
2021/06/08 12:37:47;;;;;;;17.77;15.97;;;;;;;;;;5113981;28;20481;-80
2021/06/08 12:40:16;;;;;;;20.80;18.63;;;;;;;;;;5113797;28;20443;-79
2021/06/08 12:42:44;;;;;;;20.27;18.30;;;;;;;;;;5114010;28;20469;-81
2021/06/08 12:45:11;;;;;;;16.70;14.47;;;;;;;;;;5114043;28;20531;-81
2021/06/08 12:47:38;;;;;;;13.63;12.30;;;;;;;;;;5114129;28;20466;-71
2021/06/08 12:50:09;;;;;;;19.27;12.33;;;;;;;;;;5113872;28;20499;-76
2021/06/08 12:52:36;;;;;;;13.17;11.93;;;;;;;;;;5113660;28;20433;-75
2021/06/08 12:55:09;;;;;;;14.83;12.60;;;;;;;;;;5113938;28;20442;-74
2021/06/08 12:57:36;;;;;;;14.37;13.00;;;;;;;;;;5114030;28;20415;-75
2021/06/08 13:00:07;;;;;;;14.30;13.00;;;;;;;;;;5113779;28;20530;-76
2021/06/08 13:02:35;;;;;;;16.13;13.47;;;;;;;;;;5116784;28;20493;-75
2021/06/08 13:05:03;;;;;;;15.07;13.67;;;;;;;;;;5117760;28;20465;-76
2021/06/08 13:07:30;;;;;;;16.80;15.10;;;;;;;;;;5118197;28;20540;-74
2021/06/08 13:09:58;;;;;;;18.57;16.30;;;;;;;;;;5128606;27;20808;-74
2021/06/08 13:12:26;;;;;;;17.30;14.43;;;;;;;;;;5117082;28;20805;-76
2021/06/08 13:15:01;;;;;;;18.10;16.40;;;;;;;;;;5117475;28;20452;-76
2021/06/08 13:17:29;;;;;;;16.90;15.33;;;;;;;;;;5117399;28;20537;-76
2021/06/08 13:19:57;;;;;;;16.80;15.10;;;;;;;;;;5117428;28;20447;-75
2021/06/08 13:22:24;;;;;;;16.77;15.13;;;;;;;;;;5117249;28;20529;-75
2021/06/08 13:24:52;;;;;;;19.77;15.80;;;;;;;;;;5117234;28;21075;-75
2021/06/08 13:27:20;;;;;;;17.60;15.80;;;;;;;;;;5116974;28;20829;-73
2021/06/08 13:29:47;;;;;;;19.37;17.53;;;;;;;;;;5116937;28;20529;-74
2021/06/08 13:32:24;;;;;;;21.00;18.60;;;;;;;;;;5117117;28;20436;-74
2021/06/08 13:35:10;;;;;;;18.73;16.80;;;;;;;;;;5117367;28;20458;-75
2021/06/08 13:37:37;;;;;;;19.93;16.33;;;;;;;;;;5116971;28;20524;-76
2021/06/08 13:40:12;;;;;;;19.80;16.97;;;;;;;;;;5116846;28;20443;-75
2021/06/08 13:42:38;;;;;;;20.83;18.83;;;;;;;;;;5116489;28;20947;-76
2021/06/08 13:45:07;;;;;;;21.17;18.97;;;;;;;;;;5116934;28;20770;-76
2021/06/08 13:47:35;;;;;;;20.50;18.30;;;;;;;;;;5116904;28;20446;-73
2021/06/08 13:50:03;;;;;;;20.57;18.50;;;;;;;;;;5116815;28;20440;-75
2021/06/08 13:53:00;;;;;;;21.97;19.10;;;;;;;;;;5116473;28;20431;-73
2021/06/08 13:55:27;;;;;;;20.17;18.17;;;;;;;;;;5116409;28;20446;-73
2021/06/08 14:01:03;;;;;;;21.73;19.00;;;;;;;;;;5115223;28;20427;-73
2021/06/08 14:03:29;;;;;;;19.43;17.63;;;;;;;;;;5116431;28;21050;-74
2021/06/08 14:06:06;;;;;;;23.60;18.77;;;;;;;;;;5116166;28;20465;-73
2021/06/08 14:08:35;;;;;;;18.07;16.37;;;;;;;;;;5116228;28;20531;-74
2021/06/08 14:11:02;;;;;;;18.70;16.90;;;;;;;;;;5116029;28;20418;-74
2021/06/08 14:13:30;;;;;;;19.07;17.20;;;;;;;;;;5115876;28;20423;-74
2021/06/08 14:15:58;;;;;;;18.40;16.70;;;;;;;;;;5116127;28;20445;-74
2021/06/08 14:18:25;;;;;;;18.00;16.20;;;;;;;;;;5115997;28;20446;-74
2021/06/08 14:20:52;;;;;;;18.43;16.63;;;;;;;;;;5116322;28;20452;-74
2021/06/08 14:23:18;;;;;;;18.67;15.67;;;;;;;;;;5116197;28;20540;-72
2021/06/08 14:25:46;;;;;;;18.63;16.77;;;;;;;;;;5116327;28;20417;-72
2021/06/08 14:28:13;;;;;;;19.60;17.57;;;;;;;;;;5116301;28;20505;-73
2021/06/08 14:30:40;;;;;;;17.00;14.93;;;;;;;;;;5115706;28;20994;-72
2021/06/08 14:33:07;;;;;;;14.83;13.30;;;;;;;;;;5121193;27;20807;-73
2021/06/08 14:35:34;;;;;;;16.17;14.80;;;;;;;;;;5130999;27;20432;-72